createdAt,value
2023-04-17T00:00:33.585Z,11.76
2023-04-17T00:03:01.688Z,11.72
2023-04-17T00:05:31.902Z,11.63
2023-04-17T00:08:02.722Z,11.70
2023-04-17T00:10:30.547Z,11.80
2023-04-17T00:12:58.197Z,11.74
2023-04-17T00:15:26.025Z,11.70
2023-04-17T00:17:53.740Z,11.85
2023-04-17T00:20:21.562Z,11.74
2023-04-17T00:22:49.276Z,11.48
2023-04-17T00:25:17.031Z,11.61
2023-04-17T00:27:44.742Z,11.58
2023-04-17T00:30:12.733Z,11.46
2023-04-17T00:32:40.559Z,11.57
2023-04-17T00:35:08.684Z,11.65
2023-04-17T00:37:36.464Z,11.60
2023-04-17T00:40:04.457Z,11.81
2023-04-17T00:42:32.131Z,11.65
2023-04-17T00:44:59.853Z,11.80
2023-04-17T00:47:27.768Z,11.78
2023-04-17T00:49:55.655Z,11.75
2023-04-17T00:52:29.505Z,11.76
2023-04-17T00:54:58.201Z,11.77
2023-04-17T00:57:26.062Z,11.66
2023-04-17T00:59:54.375Z,11.71
2023-04-17T01:02:22.361Z,11.57
2023-04-17T01:04:50.531Z,11.66
2023-04-17T01:07:18.626Z,11.45
2023-04-17T01:09:46.604Z,11.29
2023-04-17T01:12:21.860Z,11.39
2023-04-17T01:14:53.444Z,11.54
2023-04-17T01:17:21.900Z,11.57
2023-04-17T01:19:50.017Z,11.42
2023-04-17T01:22:17.832Z,11.48
2023-04-17T01:24:45.576Z,11.53
2023-04-17T01:27:16.340Z,11.50
2023-04-17T01:29:45.874Z,11.50
2023-04-17T01:32:13.636Z,11.56
2023-04-17T01:34:41.323Z,11.64
2023-04-17T01:37:09.069Z,11.62
2023-04-17T01:39:37.194Z,11.75
2023-04-17T01:42:05.474Z,11.76
2023-04-17T01:44:33.360Z,11.69
2023-04-17T01:47:01.118Z,11.66
2023-04-17T01:49:28.904Z,11.57
2023-04-17T01:51:56.936Z,11.67
2023-04-17T01:54:25.066Z,11.76
2023-04-17T01:56:53.303Z,11.83
2023-04-17T01:59:22.116Z,11.80
2023-04-17T02:01:50.492Z,11.80
2023-04-17T02:04:18.420Z,11.81
2023-04-17T02:06:46.315Z,11.82
2023-04-17T02:09:14.045Z,11.62
2023-04-17T02:11:41.865Z,11.66
2023-04-17T02:14:09.551Z,11.77
2023-04-17T02:16:37.801Z,11.86
2023-04-17T02:19:05.502Z,11.79
2023-04-17T02:21:33.220Z,11.66
2023-04-17T02:24:00.870Z,11.65
2023-04-17T02:26:29.248Z,11.70
2023-04-17T02:28:56.933Z,11.72
2023-04-17T02:31:24.742Z,11.74
2023-04-17T02:33:52.703Z,11.76
2023-04-17T02:36:20.459Z,11.83
2023-04-17T02:38:48.227Z,11.67
2023-04-17T02:41:16.039Z,11.79
2023-04-17T02:43:44.614Z,11.69
2023-04-17T02:46:12.375Z,11.76
2023-04-17T02:48:40.213Z,11.73
2023-04-17T02:51:07.930Z,11.69
2023-04-17T02:53:35.763Z,11.52
2023-04-17T02:56:03.952Z,11.58
2023-04-17T02:58:33.923Z,11.61
2023-04-17T03:01:02.806Z,11.60
2023-04-17T03:03:35.180Z,11.74
2023-04-17T03:06:10.382Z,11.70
2023-04-17T03:08:38.538Z,11.75
2023-04-17T03:11:06.640Z,11.60
2023-04-17T03:13:35.606Z,11.56
2023-04-17T03:16:04.770Z,11.67
2023-04-17T03:18:35.312Z,11.72
2023-04-17T03:21:03.154Z,11.65
2023-04-17T03:23:30.853Z,11.66
2023-04-17T03:25:58.951Z,11.57
2023-04-17T03:28:27.148Z,11.60
2023-04-17T03:30:57.952Z,11.57
2023-04-17T03:33:26.391Z,11.52
2023-04-17T03:35:56.883Z,11.61
2023-04-17T03:38:24.708Z,11.72
2023-04-17T03:40:53.706Z,11.59
2023-04-17T03:43:24.142Z,11.22
2023-04-17T03:45:52.330Z,10.74
2023-04-17T03:48:20.248Z,11.09
2023-04-17T03:50:50.766Z,11.06
2023-04-17T03:53:19.330Z,11.19
2023-04-17T03:55:47.118Z,11.24
2023-04-17T03:58:24.032Z,11.31
2023-04-17T04:00:55.462Z,11.35
2023-04-17T04:03:26.812Z,11.39
2023-04-17T04:05:55.229Z,11.41
2023-04-17T04:08:23.372Z,11.54
2023-04-17T04:10:53.220Z,11.48
2023-04-17T04:13:34.242Z,11.53
2023-04-17T04:16:03.949Z,11.46
2023-04-17T04:18:35.253Z,11.43
2023-04-17T04:21:03.733Z,11.50
2023-04-17T04:23:37.822Z,11.55
2023-04-17T04:26:05.987Z,11.53
2023-04-17T04:28:49.327Z,11.55
2023-04-17T04:31:31.447Z,11.45
2023-04-17T04:34:02.484Z,11.49
2023-04-17T04:36:31.152Z,11.50
2023-04-17T04:39:11.691Z,11.62
2023-04-17T04:41:45.860Z,11.52
2023-04-17T04:44:14.914Z,11.55
2023-04-17T04:46:44.262Z,11.71
2023-04-17T04:49:13.060Z,11.82
2023-04-17T04:51:41.170Z,11.81
2023-04-17T04:54:10.819Z,11.91
2023-04-17T04:56:47.329Z,11.94
2023-04-17T04:59:16.648Z,12.12
2023-04-17T05:01:51.162Z,12.04
2023-04-17T05:04:21.451Z,12.15
2023-04-17T05:06:52.909Z,12.21
2023-04-17T05:09:22.193Z,12.12
2023-04-17T05:11:55.662Z,12.42
2023-04-17T05:14:23.630Z,11.99
2023-04-17T05:16:51.494Z,12.14
2023-04-17T05:19:20.048Z,12.28
2023-04-17T05:21:55.879Z,12.19
2023-04-17T05:24:24.650Z,12.23
2023-04-17T05:26:53.523Z,12.36
2023-04-17T05:29:21.328Z,12.24
2023-04-17T05:31:49.163Z,11.76
2023-04-17T05:34:46.338Z,11.51
2023-04-17T05:37:14.953Z,11.90
2023-04-17T05:39:42.598Z,12.03
2023-04-17T05:42:10.467Z,11.91
2023-04-17T05:44:39.323Z,12.25
2023-04-17T05:47:07.195Z,12.08
2023-04-17T05:49:34.940Z,12.14
2023-04-17T05:52:02.644Z,12.14
2023-04-17T05:54:30.818Z,12.30
2023-04-17T05:56:59.559Z,12.26
2023-04-17T05:59:27.511Z,11.90
2023-04-17T06:01:55.435Z,12.36
2023-04-17T06:04:23.824Z,12.42
2023-04-17T06:06:52.426Z,12.31
2023-04-17T06:09:21.860Z,12.46
2023-04-17T06:11:50.641Z,12.71
2023-04-17T06:14:18.762Z,12.72
2023-04-17T06:16:47.443Z,12.79
2023-04-17T06:19:17.711Z,12.68
2023-04-17T06:21:46.036Z,12.88
2023-04-17T06:24:13.710Z,13.02
2023-04-17T06:26:46.402Z,13.01
2023-04-17T06:29:15.643Z,12.95
2023-04-17T06:31:44.482Z,12.76
2023-04-17T06:34:13.174Z,12.86
2023-04-17T06:36:44.055Z,13.11
2023-04-17T06:39:12.137Z,12.65
2023-04-17T06:41:40.156Z,12.55
2023-04-17T06:44:08.128Z,12.92
2023-04-17T06:46:46.907Z,13.01
2023-04-17T06:49:15.137Z,13.00
2023-04-17T06:51:45.881Z,13.31
2023-04-17T06:54:14.244Z,13.29
2023-04-17T06:56:42.173Z,13.41
2023-04-17T06:59:10.221Z,13.47
2023-04-17T07:01:40.313Z,13.25
2023-04-17T07:04:09.241Z,13.02
2023-04-17T07:06:38.194Z,13.42
2023-04-17T07:09:05.979Z,13.27
2023-04-17T07:11:33.805Z,13.52
2023-04-17T07:14:01.554Z,13.55
2023-04-17T07:16:29.272Z,13.53
2023-04-17T07:18:58.333Z,13.61
2023-04-17T07:21:26.941Z,13.32
2023-04-17T07:23:54.674Z,13.70
2023-04-17T07:26:22.737Z,13.74
2023-04-17T07:28:50.531Z,13.19
2023-04-17T07:31:18.349Z,13.77
2023-04-17T07:33:46.093Z,13.62
2023-04-17T07:36:13.817Z,13.50
2023-04-17T07:38:42.189Z,13.52
2023-04-17T07:41:11.665Z,14.08
2023-04-17T07:43:39.353Z,13.69
2023-04-17T07:46:07.133Z,13.92
2023-04-17T07:48:34.882Z,12.85
2023-04-17T07:51:02.644Z,13.56
2023-04-17T07:53:30.411Z,13.38
2023-04-17T07:55:58.447Z,13.55
2023-04-17T07:58:27.100Z,14.10
2023-04-17T08:00:54.875Z,14.23
2023-04-17T08:03:24.254Z,14.28
2023-04-17T08:05:52.351Z,14.21
2023-04-17T08:08:20.094Z,14.27
2023-04-17T08:10:47.877Z,14.39
2023-04-17T08:13:15.766Z,14.02
2023-04-17T08:15:43.947Z,14.31
2023-04-17T08:18:11.691Z,14.26
2023-04-17T08:20:39.994Z,14.23
2023-04-17T08:23:07.811Z,13.28
2023-04-17T08:25:35.676Z,13.41
2023-04-17T08:28:03.494Z,13.80
2023-04-17T08:30:31.284Z,12.98
2023-04-17T08:32:59.101Z,12.31
2023-04-17T08:35:26.915Z,12.16
2023-04-17T08:37:56.806Z,12.33
2023-04-17T08:40:26.214Z,12.35
2023-04-17T08:42:54.254Z,12.94
2023-04-17T08:45:24.195Z,12.73
2023-04-17T08:47:52.075Z,13.21
2023-04-17T08:50:20.293Z,13.63
2023-04-17T08:52:49.429Z,13.03
2023-04-17T08:55:18.605Z,13.13
2023-04-17T08:58:04.927Z,13.24
2023-04-17T09:00:34.107Z,13.74
2023-04-17T09:03:04.189Z,13.79
2023-04-17T09:05:37.095Z,13.80
2023-04-17T09:08:12.767Z,13.71
2023-04-17T09:10:47.817Z,13.68
2023-04-17T09:13:19.865Z,13.74
2023-04-17T09:16:03.282Z,13.04
2023-04-17T09:18:31.786Z,13.28
2023-04-17T09:21:00.158Z,13.40
2023-04-17T09:23:29.749Z,13.71
2023-04-17T09:26:07.977Z,13.78
2023-04-17T09:28:35.751Z,13.87
2023-04-17T09:31:04.411Z,14.07
2023-04-17T09:33:32.144Z,14.07
2023-04-17T09:36:22.432Z,13.57
2023-04-17T09:38:50.601Z,14.20
2023-04-17T09:41:28.883Z,13.83
2023-04-17T09:44:02.031Z,13.91
2023-04-17T09:46:42.479Z,14.01
2023-04-17T09:49:25.723Z,13.57
2023-04-17T09:51:53.623Z,14.04
2023-04-17T09:54:23.035Z,13.74
2023-04-17T09:56:52.381Z,13.67
2023-04-17T09:59:20.086Z,13.87
2023-04-17T10:01:47.924Z,13.16
2023-04-17T10:04:16.050Z,13.36
2023-04-17T10:06:44.013Z,13.78
2023-04-17T10:09:11.689Z,13.75
2023-04-17T10:11:42.714Z,14.31
2023-04-17T10:14:31.346Z,13.94
2023-04-17T10:16:59.082Z,14.23
2023-04-17T10:19:34.009Z,13.96
2023-04-17T10:22:19.931Z,13.42
2023-04-17T10:24:48.200Z,13.74
2023-04-17T10:27:25.749Z,14.00
2023-04-17T10:29:56.340Z,13.95
2023-04-17T10:32:25.962Z,13.37
2023-04-17T10:35:00.936Z,13.59
2023-04-17T10:37:47.162Z,13.61
2023-04-17T10:40:25.942Z,13.38
2023-04-17T10:43:06.334Z,13.74
2023-04-17T10:45:52.655Z,13.72
2023-04-17T10:48:27.858Z,13.66
2023-04-17T10:50:56.320Z,14.05
2023-04-17T10:53:45.880Z,14.55
2023-04-17T10:56:18.728Z,13.90
2023-04-17T10:58:57.789Z,14.25
2023-04-17T11:01:37.475Z,14.06
2023-04-17T11:04:06.228Z,14.83
2023-04-17T11:06:40.614Z,15.05
2023-04-17T11:09:09.301Z,14.34
2023-04-17T11:11:44.618Z,14.14
2023-04-17T11:14:17.656Z,14.37
2023-04-17T11:16:47.326Z,14.97
2023-04-17T11:19:19.123Z,14.79
2023-04-17T11:21:48.180Z,14.85
2023-04-17T11:24:28.343Z,15.10
2023-04-17T11:26:59.637Z,14.85
2023-04-17T11:29:27.508Z,14.70
2023-04-17T11:31:56.277Z,14.56
2023-04-17T11:34:25.935Z,14.83
2023-04-17T11:36:58.076Z,14.66
2023-04-17T11:39:26.888Z,14.83
2023-04-17T11:41:57.037Z,15.06
2023-04-17T11:44:25.261Z,15.03
2023-04-17T11:46:53.979Z,14.74
2023-04-17T11:49:31.694Z,14.51
2023-04-17T11:52:00.090Z,14.44
2023-04-17T11:54:32.106Z,14.40
2023-04-17T11:57:08.992Z,14.56
2023-04-17T11:59:37.979Z,14.96
2023-04-17T12:02:07.467Z,14.73
2023-04-17T12:04:36.422Z,14.45
2023-04-17T12:07:05.064Z,14.65
2023-04-17T12:09:33.679Z,14.50
2023-04-17T12:12:03.860Z,13.80
2023-04-17T12:14:32.064Z,13.44
2023-04-17T12:16:59.902Z,13.39
2023-04-17T12:19:29.342Z,13.11
2023-04-17T12:21:57.344Z,12.67
2023-04-17T12:24:25.528Z,12.51
2023-04-17T12:26:53.553Z,12.78
2023-04-17T12:29:29.528Z,12.87
2023-04-17T12:32:04.826Z,12.71
2023-04-17T12:34:32.673Z,13.57
2023-04-17T12:37:00.386Z,13.58
2023-04-17T12:39:28.141Z,13.47
2023-04-17T12:41:56.318Z,13.80
2023-04-17T12:44:24.060Z,13.76
2023-04-17T12:46:51.868Z,13.78
2023-04-17T12:49:20.576Z,13.72
2023-04-17T12:51:48.252Z,13.91
2023-04-17T12:54:16.225Z,13.76
2023-04-17T12:56:43.895Z,13.99
2023-04-17T12:59:11.703Z,14.03
2023-04-17T13:01:39.640Z,14.08
2023-04-17T13:04:07.843Z,14.04
2023-04-17T13:06:36.012Z,13.94
2023-04-17T13:09:04.687Z,13.97
2023-04-17T13:11:32.524Z,13.33
2023-04-17T13:14:00.339Z,13.36
2023-04-17T13:16:28.801Z,13.90
2023-04-17T13:18:56.863Z,14.01
2023-04-17T13:21:24.722Z,13.40
2023-04-17T13:23:52.481Z,13.49
2023-04-17T13:26:20.778Z,14.06
2023-04-17T13:28:48.894Z,14.05
2023-04-17T13:31:16.846Z,14.27
2023-04-17T13:33:44.739Z,14.25
2023-04-17T13:36:12.451Z,14.50
2023-04-17T13:38:40.213Z,14.50
2023-04-17T13:41:07.904Z,14.54
2023-04-17T13:43:35.622Z,13.99
2023-04-17T13:46:03.332Z,14.30
2023-04-17T13:48:31.203Z,14.45
2023-04-17T13:50:58.941Z,14.54
2023-04-17T13:53:26.650Z,14.57
2023-04-17T13:55:54.374Z,14.25
2023-04-17T13:58:22.109Z,14.51
2023-04-17T14:00:49.794Z,14.58
2023-04-17T14:03:18.116Z,14.37
2023-04-17T14:05:45.995Z,14.60
2023-04-17T14:08:13.770Z,14.56
2023-04-17T14:10:41.480Z,14.52
2023-04-17T14:13:09.427Z,14.54
2023-04-17T14:15:37.523Z,14.55
2023-04-17T14:18:05.602Z,14.60
2023-04-17T14:20:33.311Z,14.40
2023-04-17T14:23:01.093Z,14.52
2023-04-17T14:25:28.770Z,14.47
2023-04-17T14:27:56.541Z,14.45
2023-04-17T14:30:24.325Z,14.21
2023-04-17T14:32:53.496Z,14.32
2023-04-17T14:35:21.339Z,14.26
2023-04-17T14:37:49.048Z,14.23
2023-04-17T14:40:16.839Z,14.13
2023-04-17T14:42:54.151Z,14.15
2023-04-17T14:45:22.670Z,13.96
2023-04-17T14:47:50.574Z,13.83
2023-04-17T14:50:18.507Z,13.66
2023-04-17T14:52:46.234Z,13.80
2023-04-17T14:55:14.072Z,13.58
2023-04-17T14:57:41.782Z,13.91
2023-04-17T15:00:09.935Z,13.96
2023-04-17T15:02:39.424Z,14.01
2023-04-17T15:05:07.902Z,13.64
2023-04-17T15:07:35.841Z,13.28
2023-04-17T15:10:04.192Z,12.72
2023-04-17T15:12:31.930Z,13.10
2023-04-17T15:14:59.804Z,12.87
2023-04-17T15:17:27.491Z,12.51
2023-04-17T15:19:57.440Z,12.53
2023-04-17T15:22:25.680Z,11.87
2023-04-17T15:24:53.626Z,12.01
2023-04-17T15:27:21.326Z,11.13
2023-04-17T15:29:49.079Z,10.81
2023-04-17T15:32:16.865Z,10.87
2023-04-17T15:34:44.718Z,12.11
2023-04-17T15:37:12.429Z,12.11
2023-04-17T15:39:40.528Z,12.41
2023-04-17T15:42:09.598Z,12.51
2023-04-17T15:44:37.789Z,12.70
2023-04-17T15:47:06.614Z,12.77
2023-04-17T15:49:34.599Z,12.94
2023-04-17T15:52:02.328Z,12.87
2023-04-17T15:54:31.336Z,12.91
2023-04-17T15:56:59.066Z,12.91
2023-04-17T15:59:26.832Z,12.73
2023-04-17T16:01:54.754Z,12.56
2023-04-17T16:04:22.904Z,12.91
2023-04-17T16:06:51.067Z,12.93
2023-04-17T16:09:23.376Z,13.09
2023-04-17T16:11:51.149Z,12.83
2023-04-17T16:14:18.845Z,13.07
2023-04-17T16:16:46.610Z,13.06
2023-04-17T16:19:14.514Z,13.09
2023-04-17T16:21:42.461Z,13.13
2023-04-17T16:24:10.203Z,13.17
2023-04-17T16:26:37.999Z,13.16
2023-04-17T16:29:05.679Z,13.12
2023-04-17T16:31:33.471Z,13.15
2023-04-17T16:34:02.484Z,13.20
2023-04-17T16:36:32.795Z,13.14
2023-04-17T16:39:02.422Z,13.02
2023-04-17T16:41:31.080Z,13.07
2023-04-17T16:43:58.847Z,13.03
2023-04-17T16:46:35.579Z,12.75
2023-04-17T16:49:13.602Z,12.98
2023-04-17T16:51:41.469Z,12.94
2023-04-17T16:54:09.215Z,12.63
2023-04-17T16:56:36.974Z,12.92
2023-04-17T16:59:04.840Z,13.07
2023-04-17T17:01:32.859Z,13.15
2023-04-17T17:04:00.767Z,13.09
2023-04-17T17:06:29.156Z,13.07
2023-04-17T17:08:56.924Z,13.06
2023-04-17T17:11:24.655Z,12.96
2023-04-17T17:13:53.319Z,12.85
2023-04-17T17:16:21.248Z,12.24
2023-04-17T17:18:49.077Z,12.81
2023-04-17T17:21:16.784Z,12.83
2023-04-17T17:23:44.449Z,12.78
2023-04-17T17:26:12.346Z,12.84
2023-04-17T17:28:40.143Z,12.55
2023-04-17T17:31:08.729Z,12.41
2023-04-17T17:33:36.594Z,12.69
2023-04-17T17:36:04.559Z,12.81
2023-04-17T17:38:32.662Z,12.88
2023-04-17T17:41:00.655Z,12.71
2023-04-17T17:43:28.429Z,12.83
2023-04-17T17:45:56.190Z,12.69
2023-04-17T17:48:23.951Z,12.62
2023-04-17T17:50:54.893Z,12.74
2023-04-17T17:53:26.206Z,12.79
2023-04-17T17:55:54.997Z,12.84
2023-04-17T17:58:22.755Z,12.70
2023-04-17T18:00:50.841Z,12.53
2023-04-17T18:03:19.103Z,12.63
2023-04-17T18:05:47.169Z,12.62
2023-04-17T18:08:14.937Z,12.53
2023-04-17T18:10:42.617Z,12.44
2023-04-17T18:13:10.453Z,12.54
2023-04-17T18:15:38.183Z,12.38
2023-04-17T18:18:06.034Z,12.46
2023-04-17T18:20:38.041Z,12.46
2023-04-17T18:23:06.028Z,12.39
2023-04-17T18:25:35.665Z,12.56
2023-04-17T18:28:03.876Z,12.48
2023-04-17T18:30:31.745Z,12.53
2023-04-17T18:32:59.557Z,12.28
2023-04-17T18:35:27.304Z,12.28
2023-04-17T18:37:56.454Z,12.24
2023-04-17T18:40:24.191Z,12.03
2023-04-17T18:42:51.928Z,12.30
2023-04-17T18:45:19.634Z,12.29
2023-04-17T18:47:47.497Z,12.19
2023-04-17T18:50:15.503Z,12.25
2023-04-17T18:52:48.169Z,12.38
2023-04-17T18:55:18.150Z,12.38
2023-04-17T18:57:45.874Z,12.20
2023-04-17T19:00:13.868Z,12.42
2023-04-17T19:02:41.848Z,12.42
2023-04-17T19:05:09.730Z,12.46
2023-04-17T19:07:37.473Z,12.40
2023-04-17T19:10:05.684Z,12.34
2023-04-17T19:12:33.504Z,12.37
2023-04-17T19:15:01.185Z,12.38
2023-04-17T19:17:28.918Z,12.36
2023-04-17T19:19:56.584Z,12.38
2023-04-17T19:22:24.353Z,12.48
2023-04-17T19:24:53.021Z,12.38
2023-04-17T19:27:20.849Z,12.50
2023-04-17T19:29:48.557Z,12.48
2023-04-17T19:32:16.707Z,12.48
2023-04-17T19:34:44.550Z,12.48
2023-04-17T19:37:12.345Z,12.48
2023-04-17T19:39:40.076Z,12.50
2023-04-17T19:42:07.858Z,12.45
2023-04-17T19:44:35.675Z,12.40
2023-04-17T19:47:04.557Z,12.33
2023-04-17T19:49:32.291Z,12.26
2023-04-17T19:52:01.039Z,12.13
2023-04-17T19:54:28.784Z,12.19
2023-04-17T19:56:56.477Z,12.28
2023-04-17T19:59:24.593Z,12.13
2023-04-17T20:01:52.464Z,12.26
2023-04-17T20:04:20.344Z,12.33
2023-04-17T20:06:48.199Z,12.37
2023-04-17T20:09:16.842Z,12.32
2023-04-17T20:11:44.943Z,12.17
2023-04-17T20:14:14.819Z,12.01
2023-04-17T20:16:44.995Z,12.00
2023-04-17T20:19:13.397Z,12.11
2023-04-17T20:21:42.207Z,12.13
2023-04-17T20:24:09.909Z,12.26
2023-04-17T20:26:37.729Z,12.19
2023-04-17T20:29:05.698Z,12.18
2023-04-17T20:31:36.385Z,12.25
2023-04-17T20:34:04.232Z,12.22
2023-04-17T20:36:32.024Z,12.18
2023-04-17T20:38:59.770Z,12.16
2023-04-17T20:41:27.430Z,12.21
2023-04-17T20:43:59.053Z,12.30
2023-04-17T20:46:27.352Z,12.31
2023-04-17T20:48:55.091Z,12.29
2023-04-17T20:51:25.116Z,12.24
2023-04-17T20:53:55.804Z,12.14
2023-04-17T20:56:23.958Z,11.90
2023-04-17T20:58:51.705Z,11.86
2023-04-17T21:01:20.621Z,11.94
2023-04-17T21:03:48.507Z,12.03
2023-04-17T21:06:17.739Z,12.12
2023-04-17T21:08:45.649Z,12.05
2023-04-17T21:11:13.342Z,12.18
2023-04-17T21:13:41.095Z,12.16
2023-04-17T21:16:11.934Z,12.27
2023-04-17T21:18:39.808Z,12.16
2023-04-17T21:21:07.513Z,12.19
2023-04-17T21:23:35.228Z,12.14
2023-04-17T21:26:03.207Z,12.12
2023-04-17T21:28:30.967Z,12.21
2023-04-17T21:30:58.692Z,12.20
2023-04-17T21:33:26.430Z,12.12
2023-04-17T21:35:54.856Z,12.19
2023-04-17T21:38:22.622Z,12.04
2023-04-17T21:40:51.735Z,12.19
2023-04-17T21:43:19.656Z,11.95
2023-04-17T21:45:47.450Z,12.08
2023-04-17T21:48:15.510Z,12.05
2023-04-17T21:50:43.344Z,12.07
2023-04-17T21:53:11.110Z,12.16
2023-04-17T21:55:38.796Z,12.17
2023-04-17T21:58:07.070Z,12.15
2023-04-17T22:00:34.764Z,12.18
2023-04-17T22:03:02.500Z,12.15
2023-04-17T22:05:30.220Z,12.22
2023-04-17T22:07:58.085Z,12.25
2023-04-17T22:10:26.897Z,11.93
2023-04-17T22:12:55.406Z,12.11
2023-04-17T22:15:23.105Z,11.61
2023-04-17T22:17:50.856Z,11.83
2023-04-17T22:20:19.115Z,11.97
2023-04-17T22:22:47.220Z,11.90
2023-04-17T22:25:14.941Z,12.00
2023-04-17T22:27:42.737Z,12.01
2023-04-17T22:30:10.588Z,11.74
2023-04-17T22:32:38.375Z,11.51
2023-04-17T22:35:06.857Z,11.80
2023-04-17T22:37:34.599Z,11.95
2023-04-17T22:40:02.460Z,12.04
2023-04-17T22:42:30.168Z,12.13
2023-04-17T22:44:57.817Z,12.07
2023-04-17T22:47:25.612Z,12.03
2023-04-17T22:49:53.587Z,12.02
2023-04-17T22:52:21.759Z,12.15
2023-04-17T22:54:49.536Z,11.87
2023-04-17T22:57:17.306Z,11.90
2023-04-17T22:59:45.046Z,12.01
2023-04-17T23:02:12.886Z,11.89
2023-04-17T23:04:40.982Z,12.03
2023-04-17T23:07:09.045Z,11.96
2023-04-17T23:09:36.771Z,11.99
2023-04-17T23:12:06.020Z,12.02
2023-04-17T23:14:33.732Z,12.03
2023-04-17T23:17:01.531Z,11.90
2023-04-17T23:19:29.245Z,11.89
2023-04-17T23:21:57.864Z,11.89
2023-04-17T23:24:25.845Z,11.88
2023-04-17T23:26:55.101Z,12.03
2023-04-17T23:29:23.005Z,12.13
2023-04-17T23:31:50.811Z,12.14
2023-04-17T23:34:18.596Z,11.98
2023-04-17T23:36:47.048Z,11.81
2023-04-17T23:39:14.770Z,11.60
2023-04-17T23:41:42.796Z,11.47
2023-04-17T23:44:10.666Z,11.63
2023-04-17T23:46:38.451Z,11.39
2023-04-17T23:49:06.763Z,11.50
2023-04-17T23:51:34.952Z,11.69
2023-04-17T23:54:02.976Z,11.53
2023-04-17T23:56:31.139Z,11.57
2023-04-17T23:58:58.938Z,11.57
